Time;durP1;ratioP1;P1;durP2;ratioP2;P2;SDS_P1;SDS_P2;PMS_P1;PMS_P2;Temp;Humidity;BMP_temperature;BMP_pressure;BME280_temperature;BME280_humidity;BME280_pressure;Samples;Min_cycle;Max_cycle;Signal;HPM_P1;HPM_P2
2022/03/05 00:01:26;;;;;;;23.87;15.23;;;;;;;;;;5055213;28;20385;-68
2022/03/05 00:03:52;;;;;;;25.63;16.37;;;;;;;;;;5055384;28;20084;-65
2022/03/05 00:06:18;;;;;;;24.03;15.97;;;;;;;;;;5055406;28;20037;-65
2022/03/05 00:08:44;;;;;;;23.63;15.63;;;;;;;;;;5055481;28;20551;-64
2022/03/05 00:11:10;;;;;;;24.83;15.70;;;;;;;;;;5055442;28;20112;-64
2022/03/05 00:13:36;;;;;;;26.30;15.77;;;;;;;;;;5054747;28;20500;-64
2022/03/05 00:16:04;;;;;;;25.47;15.73;;;;;;;;;;5055712;28;20041;-64
2022/03/05 00:18:30;;;;;;;25.50;15.17;;;;;;;;;;5054814;28;20040;-64
2022/03/05 00:20:56;;;;;;;24.17;15.83;;;;;;;;;;5054997;28;20025;-64
2022/03/05 00:23:22;;;;;;;22.83;14.67;;;;;;;;;;5053797;28;20123;-64
2022/03/05 00:25:49;;;;;;;23.43;15.30;;;;;;;;;;5054975;28;20029;-65
2022/03/05 00:28:15;;;;;;;23.87;15.20;;;;;;;;;;5054791;28;20071;-64
2022/03/05 00:30:41;;;;;;;21.23;14.47;;;;;;;;;;5055834;28;20131;-64
2022/03/05 00:33:08;;;;;;;23.87;14.33;;;;;;;;;;5055365;28;20040;-64
2022/03/05 00:35:34;;;;;;;24.27;14.70;;;;;;;;;;5054430;28;20025;-76
2022/03/05 00:38:00;;;;;;;25.10;15.50;;;;;;;;;;5054659;28;20061;-64
2022/03/05 00:40:26;;;;;;;23.50;14.97;;;;;;;;;;5055125;28;20509;-64
2022/03/05 00:42:52;;;;;;;23.70;14.53;;;;;;;;;;5054908;28;20048;-64
2022/03/05 00:45:18;;;;;;;22.27;14.13;;;;;;;;;;5054891;28;20382;-64
2022/03/05 00:47:44;;;;;;;27.93;15.03;;;;;;;;;;5054904;28;20075;-72
2022/03/05 00:50:11;;;;;;;21.23;13.80;;;;;;;;;;5054628;28;20104;-64
2022/03/05 00:52:37;;;;;;;19.57;13.53;;;;;;;;;;5054917;28;20044;-65
2022/03/05 00:55:04;;;;;;;20.50;13.27;;;;;;;;;;5054646;28;20029;-64
2022/03/05 00:57:30;;;;;;;23.87;13.33;;;;;;;;;;5054085;28;20029;-64
2022/03/05 00:59:56;;;;;;;20.43;13.70;;;;;;;;;;5054358;28;21223;-74
2022/03/05 01:02:22;;;;;;;19.83;13.30;;;;;;;;;;5054055;28;20049;-64
2022/03/05 01:04:48;;;;;;;20.87;12.93;;;;;;;;;;5054231;28;20504;-64
2022/03/05 01:07:14;;;;;;;20.20;12.80;;;;;;;;;;5054319;28;20438;-64
2022/03/05 01:09:40;;;;;;;18.17;12.27;;;;;;;;;;5053966;28;20166;-64
2022/03/05 01:12:07;;;;;;;18.60;11.47;;;;;;;;;;5053925;28;20033;-64
2022/03/05 01:14:33;;;;;;;17.20;11.60;;;;;;;;;;5054199;28;20069;-64
2022/03/05 01:16:59;;;;;;;22.10;12.87;;;;;;;;;;5054081;28;20044;-64
2022/03/05 01:19:25;;;;;;;18.37;12.27;;;;;;;;;;5054026;28;20040;-64
2022/03/05 01:21:51;;;;;;;19.67;11.90;;;;;;;;;;5053846;28;20052;-64
2022/03/05 01:24:17;;;;;;;21.73;12.47;;;;;;;;;;5053802;28;20037;-64
2022/03/05 01:26:43;;;;;;;17.13;12.00;;;;;;;;;;5053537;28;20482;-64
2022/03/05 01:29:10;;;;;;;18.90;11.37;;;;;;;;;;5053864;28;20037;-64
2022/03/05 01:31:36;;;;;;;21.93;11.87;;;;;;;;;;5053673;28;20500;-64
2022/03/05 01:34:02;;;;;;;18.93;11.20;;;;;;;;;;5053550;28;20478;-64
2022/03/05 01:36:28;;;;;;;19.00;12.40;;;;;;;;;;5053646;28;20086;-64
2022/03/05 01:38:55;;;;;;;21.40;11.57;;;;;;;;;;5053739;28;20406;-64
2022/03/05 01:41:21;;;;;;;17.37;11.50;;;;;;;;;;5053213;28;20041;-64
2022/03/05 01:43:50;;;;;;;17.10;11.27;;;;;;;;;;5053499;28;20045;-64
2022/03/05 01:46:27;;;;;;;18.93;11.23;;;;;;;;;;5053779;28;20055;-64
2022/03/05 01:48:53;;;;;;;19.97;11.40;;;;;;;;;;5053135;28;20037;-64
2022/03/05 01:51:19;;;;;;;16.20;10.37;;;;;;;;;;5053279;28;20505;-65
2022/03/05 01:53:45;;;;;;;16.90;10.60;;;;;;;;;;5052871;28;20040;-65
2022/03/05 01:56:13;;;;;;;17.13;10.80;;;;;;;;;;5053338;28;20035;-64
2022/03/05 01:58:39;;;;;;;16.30;10.27;;;;;;;;;;5051156;28;20048;-64
2022/03/05 02:01:05;;;;;;;17.00;11.57;;;;;;;;;;5050574;28;20573;-64
2022/03/05 02:03:31;;;;;;;16.73;10.63;;;;;;;;;;5050437;28;20045;-64
2022/03/05 02:05:57;;;;;;;18.63;11.00;;;;;;;;;;5052867;28;20060;-64
2022/03/05 02:08:23;;;;;;;14.87;9.70;;;;;;;;;;5052592;28;20091;-64
2022/03/05 02:10:49;;;;;;;16.07;10.20;;;;;;;;;;5052996;28;20032;-64
2022/03/05 02:13:15;;;;;;;16.30;10.10;;;;;;;;;;5052689;28;20073;-64
2022/03/05 02:15:41;;;;;;;19.17;11.03;;;;;;;;;;5052965;28;20053;-64
2022/03/05 02:18:07;;;;;;;21.10;10.17;;;;;;;;;;5053127;28;20033;-64
2022/03/05 02:20:33;;;;;;;15.73;10.13;;;;;;;;;;5052740;28;20485;-65
2022/03/05 02:22:59;;;;;;;17.87;10.60;;;;;;;;;;5052581;28;20048;-66
2022/03/05 02:25:25;;;;;;;15.67;10.07;;;;;;;;;;5052782;28;20445;-69
2022/03/05 02:27:52;;;;;;;14.80;9.63;;;;;;;;;;5052349;28;20037;-64
2022/03/05 02:30:18;;;;;;;16.27;10.20;;;;;;;;;;5052837;28;20032;-64
2022/03/05 02:32:44;;;;;;;18.50;10.27;;;;;;;;;;5052600;28;20483;-64
2022/03/05 02:35:10;;;;;;;18.20;9.90;;;;;;;;;;5052578;28;20025;-74
2022/03/05 02:37:36;;;;;;;17.90;9.20;;;;;;;;;;5052653;28;20395;-76
2022/03/05 02:40:02;;;;;;;16.83;10.20;;;;;;;;;;5052469;28;20025;-64
2022/03/05 02:42:28;;;;;;;16.80;9.80;;;;;;;;;;5052534;28;20041;-64
2022/03/05 02:44:54;;;;;;;16.97;10.10;;;;;;;;;;5051884;28;20029;-65
2022/03/05 02:47:20;;;;;;;14.10;9.03;;;;;;;;;;5051484;28;20104;-65
2022/03/05 02:49:46;;;;;;;16.07;9.63;;;;;;;;;;5052024;28;20485;-64
2022/03/05 02:52:12;;;;;;;15.77;9.77;;;;;;;;;;5051979;28;20033;-64
2022/03/05 02:54:38;;;;;;;17.17;9.17;;;;;;;;;;5052559;28;20060;-75
2022/03/05 02:57:04;;;;;;;13.43;8.80;;;;;;;;;;5052351;28;20033;-64
2022/03/05 02:59:30;;;;;;;13.83;8.80;;;;;;;;;;5052641;28;20036;-63
2022/03/05 03:01:56;;;;;;;15.77;8.93;;;;;;;;;;5052288;28;20040;-64
2022/03/05 03:04:22;;;;;;;14.23;9.30;;;;;;;;;;5052947;28;20433;-64
2022/03/05 03:06:50;;;;;;;17.07;9.57;;;;;;;;;;5052194;28;20029;-63
2022/03/05 03:09:16;;;;;;;13.40;9.00;;;;;;;;;;5052805;28;20033;-64
2022/03/05 03:11:42;;;;;;;15.03;8.70;;;;;;;;;;5052304;28;20044;-64
2022/03/05 03:14:08;;;;;;;14.10;9.33;;;;;;;;;;5052169;28;20053;-63
2022/03/05 03:16:34;;;;;;;17.50;9.27;;;;;;;;;;5051899;28;20040;-64
2022/03/05 03:19:00;;;;;;;12.77;8.73;;;;;;;;;;5052095;28;20401;-64
2022/03/05 03:21:26;;;;;;;14.40;8.77;;;;;;;;;;5052189;28;20500;-64
2022/03/05 03:23:52;;;;;;;15.80;9.73;;;;;;;;;;5052363;28;20047;-64
2022/03/05 03:26:18;;;;;;;14.77;9.07;;;;;;;;;;5052341;28;20105;-64
2022/03/05 03:28:44;;;;;;;15.17;8.80;;;;;;;;;;5052263;28;20041;-64
2022/03/05 03:31:10;;;;;;;15.80;10.00;;;;;;;;;;5052178;28;20033;-64
2022/03/05 03:33:37;;;;;;;14.73;9.00;;;;;;;;;;5052311;28;20060;-64
2022/03/05 03:36:03;;;;;;;18.23;8.53;;;;;;;;;;5051832;28;20064;-64
2022/03/05 03:38:29;;;;;;;15.17;9.27;;;;;;;;;;5051681;28;20029;-64
2022/03/05 03:40:55;;;;;;;16.53;9.47;;;;;;;;;;5051937;28;20033;-64
2022/03/05 03:43:21;;;;;;;13.90;8.93;;;;;;;;;;5051746;28;20041;-64
2022/03/05 03:45:47;;;;;;;12.10;8.40;;;;;;;;;;5051853;28;20082;-64
2022/03/05 03:48:13;;;;;;;14.20;8.73;;;;;;;;;;5051464;28;20037;-64
2022/03/05 03:50:39;;;;;;;16.17;9.60;;;;;;;;;;5051726;28;20409;-64
2022/03/05 03:53:05;;;;;;;15.80;9.30;;;;;;;;;;5051813;28;20126;-70
2022/03/05 03:55:31;;;;;;;15.13;9.00;;;;;;;;;;5051302;28;20029;-64
2022/03/05 03:57:57;;;;;;;15.13;9.30;;;;;;;;;;5052876;28;20028;-63
2022/03/05 04:00:23;;;;;;;14.37;8.80;;;;;;;;;;5055304;28;20111;-64
2022/03/05 04:02:49;;;;;;;13.43;8.57;;;;;;;;;;5055122;28;20052;-64
2022/03/05 04:05:15;;;;;;;13.97;8.53;;;;;;;;;;5054305;28;20033;-68
2022/03/05 04:10:26;;;;;;;15.20;9.73;;;;;;;;;;5055386;28;20485;-64
2022/03/05 04:12:52;;;;;;;13.27;7.93;;;;;;;;;;5055194;28;20178;-64
2022/03/05 04:15:19;;;;;;;14.83;8.20;;;;;;;;;;5055090;28;20052;-64
2022/03/05 04:17:45;;;;;;;14.83;9.13;;;;;;;;;;5055429;28;20043;-64
2022/03/05 04:20:11;;;;;;;16.07;9.07;;;5.40;44.40;;;;;;5055058;28;20094;-64
2022/03/05 04:22:37;;;;;;;15.77;9.77;;;5.20;44.90;;;;;;5055222;28;20103;-64
2022/03/05 04:25:04;;;;;;;18.60;9.37;;;5.10;44.90;;;;;;5054993;28;20037;-64
2022/03/05 04:27:29;;;;;;;17.77;9.40;;;5.10;44.90;;;;;;5054828;28;20401;-64
2022/03/05 04:29:55;;;;;;;14.03;9.07;;;5.10;45.40;;;;;;5055138;28;20037;-64
2022/03/05 04:32:20;;;;;;;18.63;9.47;;;5.10;45.40;;;;;;5055089;28;20045;-64
2022/03/05 04:34:46;;;;;;;14.43;9.07;;;5.10;45.60;;;;;;5055138;28;20052;-63
2022/03/05 04:37:12;;;;;;;14.23;9.67;;;5.00;45.80;;;;;;5055219;28;20067;-64
2022/03/05 04:39:38;;;;;;;16.37;10.43;;;5.00;45.60;;;;;;5054883;28;20044;-64
2022/03/05 04:42:04;;;;;;;16.17;9.67;;;5.00;45.50;;;;;;5054671;28;20394;-74
2022/03/05 04:44:30;;;;;;;17.00;10.47;;;5.00;45.60;;;;;;5054826;28;20496;-64
2022/03/05 04:46:55;;;;;;;15.17;9.57;;;5.00;45.30;;;;;;5055194;28;20033;-64
2022/03/05 04:49:22;;;;;;;13.60;9.50;;;5.00;45.10;;;;;;5054588;28;20532;-63
2022/03/05 04:51:48;;;;;;;14.77;9.60;;;4.90;45.20;;;;;;5053379;28;20037;-64
2022/03/05 04:54:13;;;;;;;14.03;9.67;;;5.00;45.40;;;;;;5054536;28;20112;-64
2022/03/05 04:56:39;;;;;;;16.07;9.30;;;4.90;45.30;;;;;;5054393;28;20037;-64
2022/03/05 04:59:05;;;;;;;16.83;9.87;;;4.90;45.50;;;;;;5054193;28;20033;-64
2022/03/05 05:01:31;;;;;;;13.20;8.90;;;4.90;45.50;;;;;;5053665;28;20498;-64
2022/03/05 05:03:57;;;;;;;14.10;9.07;;;4.80;45.50;;;;;;5053099;28;20037;-64
2022/03/05 05:06:22;;;;;;;15.30;9.83;;;4.80;45.60;;;;;;5054441;28;20048;-64
2022/03/05 05:08:48;;;;;;;16.40;9.60;;;4.80;45.70;;;;;;5054023;28;20041;-64
2022/03/05 05:11:14;;;;;;;14.20;9.20;;;4.80;45.60;;;;;;5053709;28;20473;-64
2022/03/05 05:13:40;;;;;;;15.57;9.13;;;4.80;45.80;;;;;;5053996;28;20115;-64
2022/03/05 05:16:06;;;;;;;13.97;9.23;;;4.80;45.80;;;;;;5053865;28;20040;-64
2022/03/05 05:18:36;;;;;;;15.37;9.40;;;4.70;45.80;;;;;;5054008;28;20043;-64
2022/03/05 05:21:02;;;;;;;13.63;8.87;;;4.70;46.00;;;;;;5053910;28;20037;-64
2022/03/05 05:23:28;;;;;;;15.33;9.37;;;4.70;46.20;;;;;;5053988;28;20045;-64
2022/03/05 05:25:53;;;;;;;13.97;9.33;;;4.70;46.00;;;;;;5054120;28;20036;-64
2022/03/05 05:28:19;;;;;;;16.83;8.97;;;4.70;46.20;;;;;;5053855;28;20064;-64
2022/03/05 05:30:45;;;;;;;14.27;9.27;;;4.70;46.60;;;;;;5053378;28;20076;-64
2022/03/05 05:33:11;;;;;;;16.30;9.07;;;4.60;46.50;;;;;;5053548;28;20036;-64
2022/03/05 05:35:36;;;;;;;12.70;9.13;;;4.60;46.60;;;;;;5053753;28;20029;-64
2022/03/05 05:38:02;;;;;;;14.77;10.00;;;4.60;46.70;;;;;;5053994;28;20033;-64
2022/03/05 05:40:28;;;;;;;13.40;8.17;;;4.60;46.60;;;;;;5053755;28;20041;-74
2022/03/05 05:42:54;;;;;;;13.77;8.83;;;4.60;46.40;;;;;;5053354;28;20053;-64
2022/03/05 05:45:19;;;;;;;13.17;8.80;;;4.60;46.20;;;;;;5053549;28;20495;-64
2022/03/05 05:47:45;;;;;;;15.87;9.10;;;4.60;46.60;;;;;;5053305;28;20029;-64
2022/03/05 05:50:11;;;;;;;14.47;8.77;;;4.50;47.00;;;;;;5053410;28;20041;-64
2022/03/05 05:52:38;;;;;;;14.00;9.57;;;4.50;47.10;;;;;;5052542;28;20041;-64
2022/03/05 05:55:04;;;;;;;16.43;8.70;;;4.50;47.40;;;;;;5053047;28;20037;-75
2022/03/05 05:57:29;;;;;;;13.57;9.00;;;4.40;47.80;;;;;;5053279;28;20033;-64
2022/03/05 05:59:55;;;;;;;14.30;8.90;;;4.40;47.80;;;;;;5053292;28;20394;-64
2022/03/05 06:02:21;;;;;;;16.53;8.93;;;4.40;47.60;;;;;;5053347;28;20087;-64
2022/03/05 06:04:47;;;;;;;15.20;8.97;;;4.40;47.50;;;;;;5052958;28;20045;-64
2022/03/05 06:07:12;;;;;;;14.57;9.33;;;4.30;47.90;;;;;;5053040;28;20448;-64
2022/03/05 06:09:38;;;;;;;15.23;8.47;;;4.30;48.00;;;;;;5053304;28;20079;-64
2022/03/05 06:12:04;;;;;;;12.67;8.47;;;4.20;48.70;;;;;;5052698;28;20071;-64
2022/03/05 06:14:30;;;;;;;16.57;8.90;;;4.20;48.90;;;;;;5052779;28;20128;-64
2022/03/05 06:16:56;;;;;;;16.73;8.90;;;4.20;48.70;;;;;;5053235;28;20124;-64
2022/03/05 06:19:21;;;;;;;14.27;8.77;;;4.20;48.80;;;;;;5051928;28;20033;-64
2022/03/05 06:21:47;;;;;;;14.77;8.80;;;4.30;49.00;;;;;;5052036;28;20466;-64
2022/03/05 06:24:13;;;;;;;17.20;8.70;;;4.30;49.10;;;;;;5053576;28;20045;-64
2022/03/05 06:26:38;;;;;;;14.00;8.77;;;4.40;49.10;;;;;;5052998;28;20075;-64
2022/03/05 06:29:04;;;;;;;13.23;8.13;;;4.40;48.60;;;;;;5053232;28;20260;-64
2022/03/05 06:31:30;;;;;;;15.90;9.53;;;4.40;48.90;;;;;;5052577;28;20037;-64
2022/03/05 06:33:55;;;;;;;16.47;10.10;;;4.50;48.80;;;;;;5052481;28;20033;-64
2022/03/05 06:36:21;;;;;;;20.13;10.30;;;4.50;49.30;;;;;;5052419;28;20056;-64
2022/03/05 06:38:47;;;;;;;20.40;10.57;;;4.50;49.00;;;;;;5052780;28;20041;-64
2022/03/05 06:41:13;;;;;;;17.83;10.67;;;4.60;48.80;;;;;;5052854;28;20035;-64
2022/03/05 06:43:38;;;;;;;15.63;10.13;;;4.60;48.90;;;;;;5052673;28;20508;-64
2022/03/05 06:46:04;;;;;;;15.53;9.23;;;4.60;48.70;;;;;;5051421;28;20124;-64
2022/03/05 06:48:30;;;;;;;16.77;9.97;;;4.70;48.80;;;;;;5052886;28;20078;-64
2022/03/05 06:50:55;;;;;;;12.80;8.83;;;4.80;49.30;;;;;;5051781;28;20473;-65
2022/03/05 06:53:21;;;;;;;16.17;8.50;;;4.90;49.70;;;;;;5052381;28;20036;-64
2022/03/05 06:55:47;;;;;;;13.03;8.43;;;4.90;48.00;;;;;;5052219;28;20095;-64
2022/03/05 06:58:14;;;;;;;13.97;8.60;;;5.00;47.80;;;;;;5049558;28;20028;-67
2022/03/05 07:00:42;;;;;;;14.23;9.00;;;5.00;47.60;;;;;;5049942;28;20073;-79
2022/03/05 07:03:08;;;;;;;18.27;10.57;;;5.10;47.10;;;;;;5049582;28;20132;-81
2022/03/05 07:05:33;;;;;;;15.67;10.00;;;5.10;46.70;;;;;;5054888;28;20063;-63
2022/03/05 07:07:59;;;;;;;13.13;8.47;;;5.20;46.20;;;;;;5052535;28;20033;-69
2022/03/05 07:10:25;;;;;;;17.80;9.53;;;5.20;46.00;;;;;;5051818;28;20029;-64
2022/03/05 07:12:50;;;;;;;13.13;8.60;;;5.30;45.70;;;;;;5051121;28;20068;-62
2022/03/05 07:15:17;;;;;;;13.73;9.23;;;5.30;46.00;;;;;;5051889;28;20038;-62
2022/03/05 07:17:51;;;;;;;16.87;8.60;;;5.40;46.10;;;;;;5052114;28;20120;-62
2022/03/05 07:20:17;;;;;;;17.23;8.70;;;5.40;46.20;;;;;;5051813;28;20033;-63
2022/03/05 07:22:43;;;;;;;20.80;9.50;;;5.50;46.10;;;;;;5052137;28;20045;-62
2022/03/05 07:25:10;;;;;;;13.40;8.20;;;5.60;46.20;;;;;;5052209;28;20040;-61
2022/03/05 07:27:35;;;;;;;15.97;8.60;;;5.70;45.30;;;;;;5051780;28;20048;-61
2022/03/05 07:30:01;;;;;;;12.77;7.27;;;5.80;45.20;;;;;;5052159;28;20033;-62
2022/03/05 07:32:27;;;;;;;11.27;7.20;;;;;;;;;;5052898;28;20103;-61
2022/03/05 07:34:53;;;;;;;12.03;7.33;;;;;;;;;;5055734;28;20462;-61
2022/03/05 07:37:19;;;;;;;11.90;7.30;;;;;;;;;;5055744;28;20120;-64
2022/03/05 07:39:45;;;;;;;10.63;6.87;;;;;;;;;;5053846;28;20044;-62
2022/03/05 07:42:11;;;;;;;13.33;7.00;;;5.80;44.90;;;;;;5053180;28;20040;-62
2022/03/05 07:44:37;;;;;;;10.33;6.63;;;6.20;43.60;;;;;;5054642;28;20029;-62
2022/03/05 07:47:04;;;;;;;9.97;6.67;;;6.30;43.50;;;;;;5055367;28;20037;-77
2022/03/05 07:49:30;;;;;;;11.00;6.93;;;6.40;43.20;;;;;;5055349;28;20124;-62
2022/03/05 07:51:56;;;;;;;9.67;6.10;;;6.40;43.20;;;;;;5054422;28;20533;-62
2022/03/05 07:54:23;;;;;;;11.37;6.77;;;6.50;43.00;;;;;;5055172;28;20041;-62
2022/03/05 07:56:49;;;;;;;10.50;6.27;;;6.50;42.80;;;;;;5055901;28;20041;-62
2022/03/05 07:59:15;;;;;;;9.47;6.63;;;6.60;42.80;;;;;;5055993;28;20076;-62
2022/03/05 08:01:41;;;;;;;9.87;7.17;;;;;;;;;;5055546;28;20440;-62
2022/03/05 08:04:07;;;;;;;10.10;6.40;;;;;;;;;;5055703;28;20493;-62
2022/03/05 08:06:33;;;;;;;9.53;6.00;;;;;;;;;;5055828;28;20111;-62
2022/03/05 08:08:59;;;;;;;9.27;6.37;;;;;;;;;;5055941;28;20505;-62
2022/03/05 08:11:26;;;;;;;12.63;6.67;;;;;;;;;;5056076;28;20029;-62
2022/03/05 08:13:52;;;;;;;9.33;6.23;;;;;;;;;;5055418;28;20072;-62
2022/03/05 08:16:18;;;;;;;10.97;6.50;;;;;;;;;;5055635;28;20510;-62
2022/03/05 08:18:44;;;;;;;8.83;6.27;;;;;;;;;;5053401;28;20055;-62
2022/03/05 08:21:10;;;;;;;9.77;6.20;;;;;;;;;;5052269;28;20497;-62
2022/03/05 08:23:36;;;;;;;9.50;6.13;;;;;;;;;;5053783;28;20405;-62
2022/03/05 08:26:02;;;;;;;9.53;6.43;;;;;;;;;;5055539;28;20033;-62
2022/03/05 08:28:29;;;;;;;11.53;6.50;;;;;;;;;;5055763;28;20044;-62
2022/03/05 08:30:55;;;;;;;8.53;6.13;;;;;;;;;;5055376;28;20397;-61
2022/03/05 08:33:21;;;;;;;11.00;6.37;;;;;;;;;;5055178;28;20041;-62
2022/03/05 08:35:48;;;;;;;9.57;6.03;;;;;;;;;;5055553;28;20480;-62
2022/03/05 08:38:14;;;;;;;8.60;5.93;;;;;;;;;;5055449;28;20037;-62
2022/03/05 08:40:40;;;;;;;10.03;5.90;;;;;;;;;;5055358;28;20033;-62
2022/03/05 08:43:07;;;;;;;9.80;6.27;;;;;;;;;;5053734;28;20041;-62
2022/03/05 08:45:33;;;;;;;9.90;6.07;;;;;;;;;;5051198;28;20035;-62
2022/03/05 08:47:59;;;;;;;10.40;5.93;;;;;;;;;;5052265;28;20072;-62
2022/03/05 08:50:25;;;;;;;9.40;6.30;;;;;;;;;;5054011;28;20040;-61
2022/03/05 08:52:51;;;;;;;9.47;5.60;;;;;;;;;;5055194;28;20029;-79
2022/03/05 08:55:17;;;;;;;10.00;6.27;;;;;;;;;;5054765;28;20033;-62
2022/03/05 08:57:43;;;;;;;10.47;6.73;;;;;;;;;;5054508;28;20035;-62
2022/03/05 09:00:10;;;;;;;9.53;5.83;;;;;;;;;;5054953;28;20048;-62
2022/03/05 09:02:36;;;;;;;9.30;6.37;;;;;;;;;;5054808;28;20053;-62
2022/03/05 09:05:03;;;;;;;9.73;5.90;;;;;;;;;;5054683;28;20039;-61
2022/03/05 09:07:29;;;;;;;10.97;5.87;;;;;;;;;;5054525;28;20037;-62
2022/03/05 09:09:55;;;;;;;10.60;5.70;;;;;;;;;;5054729;28;20457;-62
2022/03/05 09:12:21;;;;;;;10.37;6.10;;;;;;;;;;5054559;28;20536;-62
2022/03/05 09:14:48;;;;;;;8.30;6.10;;;;;;;;;;5054425;28;20397;-62
2022/03/05 09:17:15;;;;;;;9.60;6.00;;;;;;;;;;5054754;28;20037;-62
2022/03/05 09:19:41;;;;;;;12.10;6.10;;;;;;;;;;5054474;28;20082;-62
2022/03/05 09:22:09;;;;;;;8.13;5.60;;;;;;;;;;5053986;28;20120;-62
2022/03/05 09:24:35;;;;;;;9.20;6.10;;;;;;;;;;5054425;28;20037;-62
2022/03/05 09:27:01;;;;;;;9.37;5.30;;;;;;;;;;5054388;28;20033;-69
2022/03/05 09:29:28;;;;;;;11.20;5.93;;;;;;;;;;5054073;28;20393;-62
2022/03/05 09:31:55;;;;;;;9.30;5.47;;;;;;;;;;5054283;28;20069;-62
2022/03/05 09:34:21;;;;;;;7.90;5.07;;;;;;;;;;5054094;28;20075;-61
2022/03/05 09:36:47;;;;;;;11.20;5.77;;;;;;;;;;5053391;28;20106;-61
2022/03/05 09:39:13;;;;;;;8.40;5.40;;;;;;;;;;5053927;28;20095;-61
2022/03/05 09:41:39;;;;;;;8.57;4.90;;;;;;;;;;5053745;28;20044;-61
2022/03/05 09:44:06;;;;;;;9.00;5.50;;;;;;;;;;5053459;28;20114;-61
2022/03/05 09:46:32;;;;;;;6.80;5.30;;;;;;;;;;5053979;28;20036;-61
2022/03/05 09:48:59;;;;;;;7.57;5.13;;;;;;;;;;5053616;28;20033;-61
2022/03/05 09:51:25;;;;;;;7.93;4.90;;;;;;;;;;5053752;28;20037;-61
2022/03/05 09:53:56;;;;;;;9.03;5.10;;;;;;;;;;5053926;28;20098;-61
2022/03/05 09:56:22;;;;;;;8.60;5.13;;;;;;;;;;5053335;28;20037;-65
2022/03/05 09:58:50;;;;;;;7.07;4.97;;;;;;;;;;5053449;28;20067;-61
2022/03/05 10:01:16;;;;;;;9.47;5.07;;;;;;;;;;5053435;28;20051;-61
2022/03/05 10:03:52;;;;;;;7.43;5.10;;;;;;;;;;5053656;28;20060;-61
2022/03/05 10:06:18;;;;;;;7.77;5.13;;;;;;;;;;5053256;28;20490;-61
2022/03/05 10:08:45;;;;;;;8.60;5.33;;;;;;;;;;5053218;28;20039;-61
2022/03/05 10:11:12;;;;;;;12.60;6.27;;;;;;;;;;5053429;28;20094;-61
2022/03/05 10:13:39;;;;;;;8.70;6.03;;;;;;;;;;5053048;28;20387;-61
2022/03/05 10:16:25;;;;;;;6.43;4.93;;;;;;;;;;5053382;28;20135;-61
2022/03/05 10:18:53;;;;;;;8.87;5.47;;;;;;;;;;5053122;28;20032;-61
2022/03/05 10:21:26;;;;;;;7.03;4.73;;;;;;;;;;5051809;28;20036;-61
2022/03/05 10:24:03;;;;;;;8.48;5.82;;;;;;;;;;5052338;28;20048;-61
2022/03/05 10:26:29;;;;;;;9.63;5.93;;;;;;;;;;5053612;28;20151;-61
2022/03/05 10:28:55;;;;;;;9.33;5.53;;;;;;;;;;5053288;28;20116;-62
2022/03/05 10:31:21;;;;;;;10.27;5.93;;;;;;;;;;5053334;28;20033;-61
2022/03/05 10:33:48;;;;;;;8.13;5.83;;;;;;;;;;5052761;28;20108;-62
2022/03/05 10:36:18;;;;;;;8.63;5.63;;;;;;;;;;5052726;28;20029;-62
2022/03/05 10:39:02;;;;;;;8.47;5.77;;;;;;;;;;5053150;28;20389;-79
2022/03/05 10:41:41;;;;;;;19.87;6.37;;;;;;;;;;5053052;28;20576;-61
2022/03/05 10:44:10;;;;;;;9.07;5.83;;;;;;;;;;5052722;28;20452;-62
2022/03/05 10:46:43;;;;;;;7.53;5.50;;;;;;;;;;5053245;28;20035;-61
2022/03/05 10:49:14;;;;;;;13.40;6.00;;;;;;;;;;5052918;28;20047;-61
2022/03/05 10:51:40;;;;;;;8.33;5.57;;;;;;;;;;5052891;28;20374;-66
2022/03/05 10:54:07;;;;;;;10.77;6.07;;;;;;;;;;5053231;28;20426;-68
2022/03/05 10:56:33;;;;;;;7.73;5.30;;;;;;;;;;5052892;28;20064;-61
2022/03/05 10:58:59;;;;;;;8.50;5.97;;;;;;;;;;5053009;28;20147;-60
2022/03/05 11:01:26;;;;;;;10.33;5.50;;;;;;;;;;5053596;28;20041;-61
2022/03/05 11:03:55;;;;;;;7.33;5.07;;;;;;;;;;5052652;28;20106;-61
2022/03/05 11:06:22;;;;;;;7.77;5.30;;;;;;;;;;5053191;28;20421;-61
2022/03/05 11:08:48;;;;;;;12.87;5.80;;;;;;;;;;5052240;28;20033;-61
2022/03/05 11:11:18;;;;;;;9.77;6.10;;;;;;;;;;5052616;28;20068;-61
2022/03/05 11:13:44;;;;;;;8.60;5.77;;;;;;;;;;5052552;28;20485;-61
2022/03/05 11:16:10;;;;;;;7.27;5.70;;;;;;;;;;5052776;28;20055;-62
2022/03/05 11:18:43;;;;;;;9.13;5.63;;;;;;;;;;5052778;28;20072;-62
2022/03/05 11:21:09;;;;;;;7.75;5.35;;;;;;;;;;5052424;28;20047;-61
2022/03/05 11:23:36;;;;;;;8.55;5.75;;;;;;;;;;5052506;28;20037;-78
2022/03/05 11:26:04;;;;;;;10.77;5.75;;;;;;;;;;5052708;28;20048;-62
2022/03/05 11:28:34;;;;;;;9.48;5.63;;;;;;;;;;5052994;28;20033;-61
2022/03/05 11:31:01;;;;;;;12.90;6.17;;;;;;;;;;5052310;28;20044;-61
2022/03/05 11:33:38;;;;;;;10.85;6.07;;;;;;;;;;5052538;28;20120;-62
2022/03/05 11:36:08;;;;;;;10.25;5.03;;;;;;;;;;5052706;28;20045;-61
2022/03/05 11:38:34;;;;;;;10.40;5.97;;;;;;;;;;5052591;28;20087;-62
2022/03/05 11:41:05;;;;;;;7.37;5.27;;;;;;;;;;5052542;28;20079;-61
2022/03/05 11:43:41;;;;;;;9.63;5.30;;;;;;;;;;5052409;28;20509;-62
2022/03/05 11:46:07;;;;;;;6.77;4.63;;;;;;;;;;5052430;28;20111;-61
2022/03/05 11:48:37;;;;;;;8.07;4.97;;;;;;;;;;5052467;28;20498;-61
2022/03/05 11:51:12;;;;;;;6.50;4.70;;;;;;;;;;5052305;28;20037;-61
2022/03/05 11:53:38;;;;;;;7.85;5.22;;;;;;;;;;5052314;28;20108;-61
2022/03/05 11:56:23;;;;;;;8.80;4.90;;;;;;;;;;5052081;28;20041;-61
2022/03/05 11:58:49;;;;;;;7.75;4.85;;;;;;;;;;5052328;28;20112;-62
2022/03/05 12:01:38;;;;;;;9.50;5.20;;;;;;;;;;5052444;28;20029;-61
2022/03/05 12:04:16;;;;;;;8.50;4.68;;;;;;;;;;5052439;28;20073;-61
2022/03/05 12:06:44;;;;;;;8.20;4.68;;;;;;;;;;5049215;28;20036;-61
2022/03/05 12:09:30;;;;;;;7.05;5.15;;;;;;;;;;5049480;28;20037;-61
2022/03/05 12:11:56;;;;;;;7.20;5.00;;;;;;;;;;5050680;28;20028;-61
2022/03/05 12:14:22;;;;;;;7.32;4.80;;;;;;;;;;5051915;28;20045;-61
2022/03/05 12:16:48;;;;;;;9.07;4.78;;;;;;;;;;5052152;28;20086;-61
2022/03/05 12:19:15;;;;;;;7.72;5.10;;;;;;;;;;5053636;28;20103;-61
2022/03/05 12:21:41;;;;;;;6.38;4.75;;;;;;;;;;5055371;28;20397;-61
2022/03/05 12:24:09;;;;;;;6.97;4.63;;;;;;;;;;5055450;28;20040;-62
2022/03/05 12:26:37;;;;;;;8.38;5.50;;;;;;;;;;5055635;28;20136;-61
2022/03/05 12:29:04;;;;;;;14.25;5.53;;;;;;;;;;5055319;28;20135;-61
2022/03/05 12:31:31;;;;;;;11.93;5.47;;;;;;;;;;5055418;28;20045;-61
2022/03/05 12:33:57;;;;;;;8.23;5.60;;;;;;;;;;5055494;28;20048;-61
2022/03/05 12:36:23;;;;;;;8.13;5.47;;;;;;;;;;5055204;28;20033;-61
2022/03/05 12:39:00;;;;;;;8.10;5.30;;;;;;;;;;5055315;28;20064;-61
2022/03/05 12:41:26;;;;;;;8.73;5.50;;;;;;;;;;5054985;28;20436;-61
2022/03/05 12:43:53;;;;;;;26.27;6.47;;;;;;;;;;5054639;28;20041;-61
2022/03/05 12:46:19;;;;;;;9.05;5.55;;;;;;;;;;5055152;28;20029;-61
2022/03/05 12:48:45;;;;;;;7.28;5.50;;;;;;;;;;5055269;28;20041;-61
2022/03/05 12:51:12;;;;;;;8.15;5.38;;;;;;;;;;5054889;28;20072;-73
2022/03/05 12:53:39;;;;;;;8.43;5.45;;;;;;;;;;5055069;28;20037;-61
2022/03/05 12:56:06;;;;;;;9.07;5.40;;;;;;;;;;5054877;28;20069;-61
2022/03/05 12:58:33;;;;;;;22.63;6.45;;;;;;;;;;5054157;28;20033;-61
2022/03/05 13:01:00;;;;;;;8.57;5.65;;;;;;;;;;5055056;28;20033;-62
2022/03/05 13:03:27;;;;;;;8.00;6.18;;;;;;;;;;5054555;28;20043;-61
2022/03/05 13:05:53;;;;;;;7.90;5.55;;;;;;;;;;5054612;28;20520;-60
2022/03/05 13:08:20;;;;;;;15.43;6.28;;;;;;;;;;5054977;28;20025;-61
2022/03/05 13:10:48;;;;;;;8.18;6.15;;;;;;;;;;5054733;28;20115;-61
2022/03/05 13:13:14;;;;;;;8.07;5.80;;;;;;;;;;5054355;28;20049;-61
2022/03/05 13:15:41;;;;;;;8.07;5.82;;;;;;;;;;5054939;28;20041;-82
2022/03/05 13:18:10;;;;;;;8.07;5.70;;;;;;;;;;5054772;28;20442;-60
2022/03/05 13:20:37;;;;;;;16.67;7.13;;;;;;;;;;5054185;28;20037;-60
2022/03/05 13:23:03;;;;;;;21.30;7.32;;;;;;;;;;5054200;28;20124;-61
2022/03/05 13:25:30;;;;;;;9.15;6.28;;;;;;;;;;5054339;28;20036;-60
2022/03/05 13:27:57;;;;;;;9.52;5.90;;;;;;;;;;5054806;28;20029;-61
2022/03/05 13:30:27;;;;;;;11.85;6.53;;;;;;;;;;5053773;28;20040;-60
2022/03/05 13:32:53;;;;;;;8.30;5.70;;;;;;;;;;5054188;28;20041;-61
2022/03/05 13:35:19;;;;;;;12.85;5.55;;;;;;;;;;5054101;28;20040;-63
2022/03/05 13:37:46;;;;;;;8.32;5.13;;;;;;;;;;5054066;28;20040;-61
2022/03/05 13:40:13;;;;;;;7.78;6.03;;;;;;;;;;5054108;28;20049;-61
2022/03/05 13:42:39;;;;;;;27.25;6.82;;;;;;;;;;5053720;28;20178;-60
2022/03/05 13:45:07;;;;;;;9.18;5.90;;;;;;;;;;5054165;28;20374;-60
2022/03/05 13:47:39;;;;;;;8.13;5.65;;;;;;;;;;5053962;28;20493;-60
2022/03/05 13:50:09;;;;;;;8.80;5.60;;;;;;;;;;5053599;28;20056;-60
2022/03/05 13:52:36;;;;;;;7.97;5.28;;;;;;;;;;5053609;28;20047;-60
2022/03/05 13:55:09;;;;;;;17.60;6.38;;;;;;;;;;5053382;28;20064;-61
2022/03/05 13:57:37;;;;;;;7.20;6.03;;;;;;;;;;5053321;28;20033;-61
2022/03/05 14:00:09;;;;;;;26.17;6.88;;;;;;;;;;5053331;28;20037;-77
2022/03/05 14:02:36;;;;;;;8.68;5.50;;;;;;;;;;5053211;28;20037;-61